createdAt,value
2018-09-28T00:05:49.000Z,47.7
2018-09-28T00:15:49.000Z,47.6
2018-09-28T00:25:50.000Z,47.5
2018-09-28T00:35:49.000Z,47.5
2018-09-28T00:45:49.000Z,47.5
2018-09-28T00:55:49.000Z,47.4
2018-09-28T01:05:49.000Z,47.4
2018-09-28T01:15:49.000Z,47.3
2018-09-28T01:25:49.000Z,47.3
2018-09-28T01:35:49.000Z,47.1
2018-09-28T01:45:49.000Z,47.1
2018-09-28T01:55:49.000Z,47
2018-09-28T02:05:50.000Z,46.9
2018-09-28T02:15:50.000Z,47
2018-09-28T02:25:50.000Z,46.9
2018-09-28T02:35:50.000Z,47
2018-09-28T02:45:50.000Z,46.9
2018-09-28T02:55:50.000Z,46.9
2018-09-28T03:05:50.000Z,46.8
2018-09-28T03:15:50.000Z,46.8
2018-09-28T03:25:50.000Z,45.6
2018-09-28T03:35:50.000Z,45.4
2018-09-28T03:45:50.000Z,45.9
2018-09-28T03:55:50.000Z,46.4
2018-09-28T04:05:50.000Z,46.6
2018-09-28T04:25:50.000Z,46.6
2018-09-28T04:35:50.000Z,46.8
2018-09-28T04:45:50.000Z,46.7
2018-09-28T04:55:50.000Z,46.8
2018-09-28T05:05:50.000Z,46.8
2018-09-28T05:15:50.000Z,46.8
2018-09-28T05:25:50.000Z,46.8
2018-09-28T05:35:50.000Z,46.8
2018-09-28T05:45:50.000Z,46.8
2018-09-28T05:55:50.000Z,46.9
2018-09-28T06:05:50.000Z,46.7
2018-09-28T06:15:50.000Z,46.9
2018-09-28T06:25:50.000Z,47
2018-09-28T06:35:50.000Z,47
2018-09-28T06:45:50.000Z,46.9
2018-09-28T06:55:50.000Z,46.9
2018-09-28T07:05:50.000Z,47
2018-09-28T07:15:50.000Z,46.9
2018-09-28T07:25:50.000Z,46.8
2018-09-28T07:35:50.000Z,46.8
2018-09-28T07:45:50.000Z,46.8
2018-09-28T07:55:50.000Z,46.9
2018-09-28T08:05:50.000Z,46.3
2018-09-28T08:15:50.000Z,46.3
2018-09-28T08:25:50.000Z,46.5
2018-09-28T08:35:50.000Z,46.6
2018-09-28T08:45:51.000Z,46.5
2018-09-28T08:55:51.000Z,45.8
2018-09-28T09:05:51.000Z,46.5
2018-09-28T09:15:51.000Z,46.5
2018-09-28T09:25:51.000Z,46.7
2018-09-28T09:35:52.000Z,46.7
2018-09-28T09:45:51.000Z,46.7
2018-09-28T09:55:51.000Z,46.6
2018-09-28T10:05:51.000Z,46.5
2018-09-28T10:15:51.000Z,46.4
2018-09-28T10:25:51.000Z,46.3
2018-09-28T10:35:51.000Z,46.3
2018-09-28T10:45:51.000Z,46.3
2018-09-28T10:55:51.000Z,46.3
2018-09-28T11:05:51.000Z,46.4
2018-09-28T11:15:51.000Z,46.3
2018-09-28T11:25:51.000Z,46.3
2018-09-28T11:35:51.000Z,46.5
2018-09-28T11:45:51.000Z,46.5
2018-09-28T11:55:51.000Z,46.5
2018-09-28T12:15:51.000Z,46.5
2018-09-28T12:25:51.000Z,46.5
2018-09-28T12:35:51.000Z,46.6
2018-09-28T12:45:51.000Z,46.4
2018-09-28T12:55:51.000Z,46.5
2018-09-28T13:05:51.000Z,46.6
2018-09-28T13:15:51.000Z,46.5
2018-09-28T13:25:51.000Z,46.8
2018-09-28T13:35:51.000Z,46.7
2018-09-28T13:45:51.000Z,46.5
2018-09-28T13:55:51.000Z,46.5
2018-09-28T14:05:51.000Z,46.5
2018-09-28T14:15:51.000Z,46.6
2018-09-28T14:25:52.000Z,46.4
2018-09-28T14:35:51.000Z,46.5
2018-09-28T14:45:51.000Z,46.5
2018-09-28T14:55:51.000Z,46.5
2018-09-28T15:05:51.000Z,46.4
2018-09-28T15:15:52.000Z,46.4
2018-09-28T15:25:51.000Z,46.3
2018-09-28T15:35:53.000Z,46.4
2018-09-28T15:45:52.000Z,46.4
2018-09-28T15:55:52.000Z,46.4
2018-09-28T16:05:52.000Z,46.5
2018-09-28T16:15:52.000Z,46.5
2018-09-28T16:25:52.000Z,46.6
2018-09-28T16:35:52.000Z,46.6
2018-09-28T16:45:52.000Z,46.6
2018-09-28T16:55:53.000Z,46.5
2018-09-28T17:05:52.000Z,46.5
2018-09-28T17:15:52.000Z,46.5
2018-09-28T17:25:52.000Z,46.5
2018-09-28T17:35:52.000Z,46.4
2018-09-28T17:45:52.000Z,46.4
2018-09-28T17:55:52.000Z,46.3
2018-09-28T18:05:52.000Z,46.3
2018-09-28T18:15:52.000Z,46.3
2018-09-28T18:25:52.000Z,46.2
2018-09-28T18:35:52.000Z,46.1
2018-09-28T18:45:55.000Z,46.1
2018-09-28T18:55:52.000Z,46
2018-09-28T19:05:54.000Z,46.1
2018-09-28T19:15:52.000Z,46
2018-09-28T19:25:52.000Z,46
2018-09-28T19:35:52.000Z,45.9
2018-09-28T19:45:56.000Z,46.1
2018-09-28T19:55:52.000Z,45.9
2018-09-28T20:05:52.000Z,46
2018-09-28T20:15:52.000Z,46.1
2018-09-28T20:25:52.000Z,46.1
2018-09-28T20:35:52.000Z,45.9
2018-09-28T20:45:53.000Z,45.9
2018-09-28T20:55:52.000Z,46.2
2018-09-28T21:15:52.000Z,45.3
2018-09-28T21:25:52.000Z,44.8
2018-09-28T21:35:52.000Z,44.8
2018-09-28T21:45:52.000Z,45.1
2018-09-28T21:55:53.000Z,44.1
2018-09-28T22:05:52.000Z,43.8
2018-09-28T22:15:52.000Z,43.9
2018-09-28T22:25:52.000Z,44.1
2018-09-28T22:35:53.000Z,44.1
2018-09-28T22:45:53.000Z,44
2018-09-28T22:55:53.000Z,44
2018-09-28T23:05:54.000Z,43.8
2018-09-28T23:15:53.000Z,43.8
2018-09-28T23:25:53.000Z,43.8
2018-09-28T23:35:53.000Z,43.9
2018-09-28T23:45:53.000Z,43.8
2018-09-28T23:55:53.000Z,43.7
